الصفحة الرئيسية
METAR-TAF:

METAR-TAF

مطار :

سوفا, فيجي

دائرة عرض: 18-03S, خط طول: 178-34E, ارتفاع: 5 متر

مراقبة الطقس الحالي

تاريخ ووقت الإصدار 31 دقيقة قبل الساعة 16:00UTC
رياح هادئة
درجة الحرارة 25°درجة مئوية
الرطوبة 94%
ضغط 1010 hPa
الرؤية 10 كم أو أكثر
غيوم متفرقة على ارتفاع 2000 قدم
غيوم مفككة على ارتفاع 4500 قدم

METAR: NFNA 111600Z 00000KT 9999 SCT020 BKN045 25/24 Q1010

زمن: 04:31 (16:31 UTC)

توقعات

تاريخ ووقت الإصدار 5ساعات و 28 دقيقة قبل الساعة 11:03UTC
التوقعات صالحة من11 الساعة 12 UTC إلى 12 الساعة 12 UTC
ريح 6 عقدة من الشرق
الرؤية 10 كم أو أكثر
غيوم متفرقة على ارتفاع 2000 قدم
غيوم متفرقة على ارتفاع 4500 قدم
نظرية الاحتمالات 30% :
مؤقت
من 11 الساعة 16 UTC إلى 11 الساعة 18 UTC
الرؤية: 5000 متر
غيوم مفككة على ارتفاع 1500 قدم
زخات من المطر
نظرية الاحتمالات 30% :
مؤقت
من 12 الساعة 02 UTC إلى 12 الساعة 06 UTC
الرؤية: 5000 متر
غيوم مفككة على ارتفاع 1500 قدم
زخات من المطر

TAF: NFNA 111103Z 1112/1212 08006KT 9999 SCT020 SCT045 PROB30 TEMPO 1116/1118 5000 SHRA BKN015 PROB30 TEMPO 1202/1206 5000 SHRA BKN015

أرصاد الطقس والتوقعات من أكثر من 4000 مطار (تقارير الطقس للمطار METAR والتنبؤ بالطقس بالمطارTAF).

المحطات المتاحة هي النقط الصفراء والحمراء على الخريطة.

حرك المؤشر فوق النقطة لمعرفة اسم المحطة.

ثم انقر لمعرفة أرصاد وتوقعات الطقس.

لتغيير الخارطة: اضغط على الأزرار الخضراء مع رمز الصليب الأسود للتكبير. على الزر الأخضر مع شرطة للتصغير، أو على الأسهم الخضراء للخرائط المجاورة.


METAR-TAF: